Time;durP1;ratioP1;P1;durP2;ratioP2;P2;SDS_P1;SDS_P2;PMS_P1;PMS_P2;Temp;Humidity;BMP_temperature;BMP_pressure;BME280_temperature;BME280_humidity;BME280_pressure;Samples;Min_cycle;Max_cycle;Signal;HPM_P1;HPM_P2
2023/10/25 00:03:05;;;;;;;3.50;1.20;;;15.20;73.40;;;;;;2514426;55;21017;-68
2023/10/25 00:05:33;;;;;;;3.85;0.80;;;15.20;73.50;;;;;;2514070;55;21454;-66
2023/10/25 00:07:59;;;;;;;1.87;0.80;;;15.20;73.80;;;;;;2281051;56;20966;-67
2023/10/25 00:10:25;;;;;;;3.28;1.00;;;15.20;73.90;;;;;;2281160;56;21860;-67
2023/10/25 00:12:51;;;;;;;3.00;0.85;;;15.20;73.80;;;;;;2280882;55;20946;-66
2023/10/25 00:15:18;;;;;;;2.05;0.90;;;15.20;73.80;;;;;;2280065;56;21033;-68
2023/10/25 00:17:46;;;;;;;2.10;1.00;;;15.20;73.80;;;;;;2281846;56;20930;-66
2023/10/25 00:20:13;;;;;;;1.90;0.80;;;15.20;73.80;;;;;;2280980;56;21104;-66
2023/10/25 00:22:39;;;;;;;1.65;0.80;;;15.20;73.80;;;;;;2280647;55;21023;-67
2023/10/25 00:25:07;;;;;;;1.85;0.75;;;15.20;73.80;;;;;;2260503;55;21448;-67
2023/10/25 00:27:36;;;;;;;2.05;0.80;;;15.20;73.80;;;;;;2280058;55;21835;-68
2023/10/25 00:30:02;;;;;;;1.77;0.77;;;15.20;73.90;;;;;;2277120;54;21551;-66
2023/10/25 00:32:28;;;;;;;2.20;0.90;;;15.20;73.90;;;;;;2513904;55;21466;-66
2023/10/25 00:34:55;;;;;;;2.65;0.90;;;15.20;73.90;;;;;;2281026;55;21075;-69
2023/10/25 00:37:21;;;;;;;1.33;0.62;;;15.30;74.10;;;;;;2514202;55;20962;-67
2023/10/25 00:39:47;;;;;;;1.95;0.70;;;15.20;74.00;;;;;;2281284;55;20958;-68
2023/10/25 00:42:14;;;;;;;1.45;0.68;;;15.20;74.00;;;;;;2279419;56;20958;-66
2023/10/25 00:44:40;;;;;;;1.95;0.80;;;15.20;74.00;;;;;;2279421;55;21270;-67
2023/10/25 00:47:08;;;;;;;1.70;0.70;;;15.20;74.00;;;;;;2279716;55;21020;-68
2023/10/25 00:49:34;;;;;;;1.20;0.65;;;15.20;74.00;;;;;;2513617;55;21114;-68
2023/10/25 00:52:01;;;;;;;3.22;0.73;;;15.20;74.00;;;;;;2280257;55;20965;-66
2023/10/25 00:54:27;;;;;;;1.30;0.60;;;15.20;74.10;;;;;;2280184;55;21029;-67
2023/10/25 00:56:55;;;;;;;2.00;0.85;;;15.20;74.20;;;;;;2513432;54;21021;-67
2023/10/25 00:59:23;;;;;;;2.25;0.77;;;15.20;74.20;;;;;;2512790;54;21054;-66
2023/10/25 01:01:52;;;;;;;1.50;0.60;;;15.20;74.20;;;;;;2280633;55;20962;-65
2023/10/25 01:04:19;;;;;;;1.35;0.60;;;15.20;74.20;;;;;;2512623;55;20969;-68
2023/10/25 01:06:47;;;;;;;1.10;0.60;;;15.20;74.20;;;;;;2280415;56;20990;-67
2023/10/25 01:09:15;;;;;;;2.67;0.77;;;15.20;74.30;;;;;;2280142;56;21013;-68
2023/10/25 01:11:41;;;;;;;1.67;0.62;;;15.20;74.20;;;;;;2281486;56;21049;-67
2023/10/25 01:14:07;;;;;;;1.95;0.57;;;15.20;74.30;;;;;;2280136;55;21021;-68
2023/10/25 01:16:34;;;;;;;2.37;0.77;;;15.20;74.30;;;;;;2512472;55;21018;-66
2023/10/25 01:19:00;;;;;;;1.23;0.60;;;15.20;74.40;;;;;;2280216;56;21041;-66
2023/10/25 01:21:27;;;;;;;2.25;0.80;;;15.20;74.40;;;;;;2513273;55;21290;-67
2023/10/25 01:23:54;;;;;;;2.75;0.90;;;15.20;74.40;;;;;;2512776;54;21498;-67
2023/10/25 01:26:21;;;;;;;1.40;0.70;;;15.20;74.50;;;;;;2279488;55;21419;-67
2023/10/25 01:28:47;;;;;;;1.23;0.60;;;15.30;74.60;;;;;;2281801;55;21580;-66
2023/10/25 01:31:13;;;;;;;1.45;0.70;;;15.30;74.60;;;;;;2274040;55;20953;-71
2023/10/25 01:33:40;;;;;;;1.45;0.60;;;15.30;74.50;;;;;;2280089;55;20957;-66
2023/10/25 01:36:49;;;;;;;1.17;0.55;;;15.30;74.50;;;;;;2279744;55;20954;-67
2023/10/25 01:39:15;;;;;;;1.52;0.50;;;15.30;74.10;;;;;;2254873;56;21066;-69
2023/10/25 01:41:41;;;;;;;1.27;0.65;;;15.30;74.40;;;;;;2281407;55;20941;-65
2023/10/25 01:44:08;;;;;;;1.48;0.70;;;15.30;74.40;;;;;;2279645;56;21069;-68
2023/10/25 01:46:34;;;;;;;1.67;0.70;;;15.30;74.40;;;;;;2281084;56;21984;-66
2023/10/25 01:49:01;;;;;;;1.00;0.50;;;15.30;74.30;;;;;;2513225;55;21140;-66
2023/10/25 01:51:27;;;;;;;1.60;0.60;;;15.30;74.30;;;;;;2280350;56;20961;-67
2023/10/25 01:53:53;;;;;;;1.30;0.50;;;15.30;74.30;;;;;;2508395;54;21661;-67
2023/10/25 01:56:20;;;;;;;1.60;0.70;;;15.40;74.40;;;;;;2276144;55;20954;-68
2023/10/25 01:58:46;;;;;;;1.30;0.50;;;15.40;74.40;;;;;;2514050;55;21061;-65
2023/10/25 02:01:12;;;;;;;1.23;0.60;;;15.30;74.30;;;;;;2280042;55;21752;-68
2023/10/25 02:03:39;;;;;;;1.35;0.60;;;15.30;74.30;;;;;;2280932;55;21026;-68
2023/10/25 02:06:13;;;;;;;1.95;0.60;;;15.30;74.30;;;;;;2280122;56;21807;-69
2023/10/25 02:08:39;;;;;;;1.23;0.55;;;15.30;74.10;;;;;;2283769;55;20930;-67
2023/10/25 02:11:07;;;;;;;0.85;0.40;;;15.30;74.30;;;;;;2273548;54;20967;-68
2023/10/25 02:13:33;;;;;;;2.92;0.62;;;15.30;74.30;;;;;;2280654;55;20987;-66
2023/10/25 02:16:00;;;;;;;1.52;0.60;;;15.30;74.30;;;;;;2275902;55;21029;-67
2023/10/25 02:18:27;;;;;;;1.02;0.47;;;15.30;74.20;;;;;;2513429;55;20962;-68
2023/10/25 02:20:53;;;;;;;1.60;0.50;;;15.30;74.20;;;;;;2281229;56;20950;-68
2023/10/25 02:23:20;;;;;;;2.17;0.40;;;15.40;74.30;;;;;;2279590;55;21522;-66
2023/10/25 02:25:46;;;;;;;1.77;0.50;;;15.30;74.20;;;;;;2280631;56;20966;-67
2023/10/25 02:28:13;;;;;;;0.88;0.40;;;15.40;74.20;;;;;;2280062;55;21108;-66
2023/10/25 02:30:40;;;;;;;1.02;0.47;;;15.40;74.20;;;;;;2504788;55;21050;-67
2023/10/25 02:33:30;;;;;;;0.90;0.40;;;15.30;74.20;;;;;;2280442;56;20950;-68
2023/10/25 02:35:58;;;;;;;1.20;0.50;;;15.40;73.80;;;;;;2281005;56;21034;-70
2023/10/25 02:38:24;;;;;;;1.00;0.47;;;15.30;74.10;;;;;;2280242;56;20954;-67
2023/10/25 02:40:50;;;;;;;0.60;0.28;;;15.30;74.10;;;;;;2281220;55;20994;-69
2023/10/25 02:43:17;;;;;;;1.40;0.60;;;15.30;74.10;;;;;;2280320;56;20957;-67
2023/10/25 02:45:44;;;;;;;1.12;0.35;;;15.40;74.20;;;;;;2281443;56;21546;-69
2023/10/25 02:48:13;;;;;;;0.98;0.45;;;15.30;74.00;;;;;;2513940;55;21069;-67
2023/10/25 02:50:40;;;;;;;0.45;0.30;;;15.30;74.00;;;;;;2281192;55;20974;-68
2023/10/25 02:53:08;;;;;;;0.77;0.30;;;15.30;74.00;;;;;;2280558;56;21060;-66
2023/10/25 02:55:34;;;;;;;0.30;0.30;;;15.30;74.00;;;;;;2281388;56;20994;-68
2023/10/25 02:58:01;;;;;;;1.23;0.40;;;15.30;74.00;;;;;;2514291;54;20989;-70
2023/10/25 03:00:28;;;;;;;1.17;0.60;;;15.30;74.00;;;;;;2278299;55;20970;-66
2023/10/25 03:02:54;;;;;;;1.02;0.50;;;15.30;74.00;;;;;;2280109;55;21014;-67
2023/10/25 03:05:20;;;;;;;0.40;0.22;;;15.30;73.90;;;;;;2281803;56;21041;-66
2023/10/25 03:07:47;;;;;;;0.68;0.30;;;15.30;73.80;;;;;;2514725;55;21090;-66
2023/10/25 03:10:13;;;;;;;2.67;0.30;;;15.30;73.80;;;;;;2281069;55;20957;-68
2023/10/25 03:12:40;;;;;;;0.95;0.40;;;15.30;73.70;;;;;;2282178;56;20938;-66
2023/10/25 03:15:07;;;;;;;0.85;0.37;;;15.20;73.60;;;;;;2281235;56;20982;-67
2023/10/25 03:17:33;;;;;;;1.37;0.50;;;15.20;73.60;;;;;;2280536;55;21311;-71
2023/10/25 03:20:00;;;;;;;1.20;0.40;;;15.20;73.60;;;;;;2280474;56;20938;-66
2023/10/25 03:22:28;;;;;;;1.20;0.50;;;15.20;73.60;;;;;;2276684;54;20958;-68
2023/10/25 03:24:55;;;;;;;3.05;0.40;;;15.20;73.60;;;;;;2514448;55;21022;-68
2023/10/25 03:27:22;;;;;;;0.90;0.40;;;15.20;73.60;;;;;;2513557;55;22047;-66
2023/10/25 03:29:48;;;;;;;2.55;0.50;;;15.20;73.50;;;;;;2281218;55;21017;-67
2023/10/25 03:32:15;;;;;;;1.00;0.40;;;15.20;73.60;;;;;;2513934;55;20978;-67
2023/10/25 03:34:42;;;;;;;0.82;0.40;;;15.10;73.50;;;;;;2282026;55;21498;-66
2023/10/25 03:37:08;;;;;;;1.20;0.60;;;15.10;73.60;;;;;;2280743;56;20958;-66
2023/10/25 03:39:35;;;;;;;1.55;0.40;;;15.10;73.50;;;;;;2514415;55;21876;-67
2023/10/25 03:42:01;;;;;;;1.10;0.43;;;15.10;73.50;;;;;;2282319;56;21005;-66
2023/10/25 03:44:30;;;;;;;1.02;0.40;;;15.10;73.50;;;;;;2280853;55;20954;-65
2023/10/25 03:46:56;;;;;;;1.00;0.50;;;15.10;73.50;;;;;;2281728;56;20946;-67
2023/10/25 03:49:22;;;;;;;1.08;0.50;;;15.00;73.40;;;;;;2280276;56;21041;-67
2023/10/25 03:51:49;;;;;;;1.02;0.40;;;15.10;73.50;;;;;;2282475;55;20967;-66
2023/10/25 03:54:16;;;;;;;0.40;0.30;;;15.00;74.10;;;;;;2281848;55;21002;-68
2023/10/25 03:56:42;;;;;;;1.55;0.40;;;15.00;73.50;;;;;;2511951;55;20992;-69
2023/10/25 03:59:09;;;;;;;0.75;0.32;;;15.00;73.60;;;;;;2276526;55;20954;-65
2023/10/25 04:01:35;;;;;;;0.35;0.30;;;15.00;73.60;;;;;;2281218;56;21786;-66
2023/10/25 04:04:02;;;;;;;0.90;0.40;;;15.00;73.60;;;;;;2514992;55;21022;-70
2023/10/25 04:06:29;;;;;;;1.75;0.60;;;14.90;73.60;;;;;;2513831;55;21591;-69
2023/10/25 04:08:59;;;;;;;0.85;0.40;;;14.90;73.70;;;;;;2513759;55;20977;-69
2023/10/25 04:11:25;;;;;;;0.80;0.30;;;14.90;73.70;;;;;;2513813;55;20974;-68
2023/10/25 04:13:51;;;;;;;0.90;0.50;;;14.90;73.70;;;;;;2281989;56;21462;-67
2023/10/25 04:16:18;;;;;;;1.05;0.35;;;14.90;73.70;;;;;;2280628;55;21768;-66
2023/10/25 04:18:45;;;;;;;1.35;0.50;;;14.90;73.80;;;;;;2512289;55;21022;-67
2023/10/25 04:21:12;;;;;;;0.95;0.50;;;14.90;73.70;;;;;;2276269;55;21490;-71
2023/10/25 04:23:38;;;;;;;1.00;0.40;;;14.90;73.80;;;;;;2514811;55;20978;-67
2023/10/25 04:26:11;;;;;;;0.80;0.40;;;14.90;73.80;;;;;;2281439;56;20958;-66
2023/10/25 04:28:38;;;;;;;1.17;0.40;;;14.90;74.30;;;;;;2281504;56;21518;-68
2023/10/25 04:31:06;;;;;;;1.45;0.55;;;14.90;73.50;;;;;;2281617;55;21025;-69
2023/10/25 04:33:33;;;;;;;0.98;0.40;;;14.90;73.40;;;;;;2514339;55;21002;-67
2023/10/25 04:35:59;;;;;;;0.60;0.30;;;14.90;73.40;;;;;;2281849;55;21014;-68
2023/10/25 04:38:25;;;;;;;0.30;0.30;;;14.90;73.40;;;;;;2514054;55;20962;-68
2023/10/25 04:40:52;;;;;;;1.37;0.50;;;14.90;73.40;;;;;;2281640;56;20941;-66
2023/10/25 04:43:20;;;;;;;1.50;0.50;;;15.00;73.50;;;;;;2280790;56;21332;-69
2023/10/25 04:45:48;;;;;;;2.60;0.57;;;14.90;73.40;;;;;;2281622;55;21050;-66
2023/10/25 04:48:15;;;;;;;0.70;0.30;;;14.90;73.20;;;;;;2282037;54;20975;-69
2023/10/25 04:50:42;;;;;;;1.23;0.40;;;14.80;73.00;;;;;;2266599;55;20966;-68
2023/10/25 04:53:09;;;;;;;1.62;0.30;;;14.80;73.00;;;;;;2281694;55;20962;-66
2023/10/25 04:55:36;;;;;;;3.42;0.50;;;14.80;73.10;;;;;;2281491;56;21037;-68
2023/10/25 04:58:03;;;;;;;0.70;0.30;;;14.70;72.90;;;;;;2514913;55;21009;-68
2023/10/25 05:00:30;;;;;;;1.12;0.37;;;14.80;72.90;;;;;;2514632;55;20985;-67
2023/10/25 05:02:56;;;;;;;1.17;0.40;;;14.80;72.90;;;;;;2515210;55;21086;-68
2023/10/25 05:05:25;;;;;;;1.00;0.40;;;14.70;72.80;;;;;;2281361;56;21359;-70
2023/10/25 05:07:52;;;;;;;0.68;0.37;;;14.70;72.90;;;;;;2281813;55;21376;-70
2023/10/25 05:10:19;;;;;;;2.92;0.60;;;14.70;72.90;;;;;;2512515;55;21007;-71
2023/10/25 05:12:46;;;;;;;0.88;0.40;;;14.60;72.70;;;;;;2498317;54;20998;-68
2023/10/25 05:15:14;;;;;;;1.27;0.47;;;14.60;72.80;;;;;;2280689;56;20934;-69
2023/10/25 05:17:41;;;;;;;1.45;0.40;;;14.60;72.70;;;;;;2513762;55;20977;-69
2023/10/25 05:20:08;;;;;;;1.73;0.50;;;14.60;72.80;;;;;;2514136;55;20945;-71
2023/10/25 05:22:36;;;;;;;1.08;0.50;;;14.70;72.90;;;;;;2504685;54;21925;-71
2023/10/25 05:25:06;;;;;;;1.05;0.50;;;14.50;72.60;;;;;;2513935;55;21892;-69
2023/10/25 05:27:33;;;;;;;1.30;0.60;;;14.50;72.60;;;;;;2280463;55;21951;-69
2023/10/25 05:30:03;;;;;;;1.08;0.52;;;14.50;72.60;;;;;;2280964;56;21018;-70
2023/10/25 05:32:37;;;;;;;1.37;0.60;;;14.50;72.70;;;;;;2279899;55;20942;-71
2023/10/25 05:35:05;;;;;;;1.10;0.50;;;14.40;72.60;;;;;;2514015;55;21729;-69
2023/10/25 05:37:37;;;;;;;1.58;0.77;;;14.40;72.60;;;;;;2514031;55;20918;-66
2023/10/25 05:40:04;;;;;;;;;;;14.40;72.60;;;;;;2516523;55;20926;-69
2023/10/25 05:42:31;;;;;;;2.40;0.85;;;14.40;71.70;;;;;;2513970;55;20409;-69
2023/10/25 05:44:58;;;;;;;2.67;0.90;;;14.40;72.60;;;;;;2514244;55;21022;-68
2023/10/25 05:47:30;;;;;;;1.92;0.77;;;14.30;72.40;;;;;;2280805;55;21017;-66
2023/10/25 05:49:57;;;;;;;1.48;0.68;;;14.30;72.40;;;;;;2282048;56;21439;-65
2023/10/25 05:52:24;;;;;;;1.60;0.70;;;14.30;72.40;;;;;;2280912;55;20989;-69
2023/10/25 05:54:51;;;;;;;1.90;0.75;;;14.30;72.40;;;;;;2281496;56;21038;-68
2023/10/25 05:57:18;;;;;;;2.03;0.90;;;14.20;72.20;;;;;;2279947;55;21146;-68
2023/10/25 05:59:45;;;;;;;1.58;0.98;;;14.20;72.30;;;;;;2278640;54;21294;-68
2023/10/25 06:02:14;;;;;;;1.77;0.70;;;14.20;72.40;;;;;;2514778;55;20958;-67
2023/10/25 06:04:41;;;;;;;1.08;0.50;;;14.20;72.50;;;;;;2281619;56;20998;-69
2023/10/25 06:07:09;;;;;;;1.90;0.73;;;14.10;72.40;;;;;;2513958;55;20950;-68
2023/10/25 06:09:39;;;;;;;1.70;0.60;;;14.10;72.40;;;;;;2280784;55;21281;-70
2023/10/25 06:12:08;;;;;;;1.52;0.70;;;14.10;72.40;;;;;;2280762;55;21001;-70
2023/10/25 06:14:34;;;;;;;1.40;0.60;;;14.10;72.40;;;;;;2513876;55;22009;-68
2023/10/25 06:17:02;;;;;;;1.05;0.50;;;14.10;72.40;;;;;;2514929;55;20966;-70
2023/10/25 06:19:28;;;;;;;1.20;0.50;;;14.10;72.60;;;;;;2514073;55;20938;-68
2023/10/25 06:21:55;;;;;;;1.48;0.50;;;14.00;72.50;;;;;;2515394;55;20934;-67
2023/10/25 06:24:21;;;;;;;1.12;0.50;;;14.00;72.50;;;;;;2280216;55;21403;-70
2023/10/25 06:26:51;;;;;;;0.80;0.30;;;14.00;72.60;;;;;;2281977;56;21018;-68
2023/10/25 06:29:17;;;;;;;1.05;0.40;;;14.00;72.80;;;;;;2513598;54;20946;-69
2023/10/25 06:31:50;;;;;;;1.33;0.50;;;14.00;72.80;;;;;;2514977;55;21013;-68
2023/10/25 06:34:20;;;;;;;1.52;0.62;;;14.00;72.80;;;;;;2280980;56;20958;-70
2023/10/25 06:36:47;;;;;;;2.42;0.50;;;14.00;72.70;;;;;;2514849;55;20957;-71
2023/10/25 06:39:14;;;;;;;1.70;0.60;;;14.00;72.90;;;;;;2514685;55;21062;-68
2023/10/25 06:41:41;;;;;;;1.40;0.60;;;14.00;73.10;;;;;;2281486;56;21006;-67
2023/10/25 06:44:08;;;;;;;2.00;0.90;;;13.90;73.10;;;;;;2506622;54;21019;-70
2023/10/25 06:46:35;;;;;;;2.30;1.08;;;14.00;73.20;;;;;;2505718;54;21842;-66
2023/10/25 06:49:01;;;;;;;3.87;1.30;;;14.00;73.30;;;;;;2280077;54;20942;-70
2023/10/25 06:52:02;;;;;;;2.92;1.20;;;14.00;73.20;;;;;;2513501;55;21688;-67
2023/10/25 06:54:28;;;;;;;2.65;1.20;;;14.00;72.90;;;;;;2513587;55;21058;-67
2023/10/25 06:56:55;;;;;;;2.30;1.10;;;14.00;73.20;;;;;;2281964;55;21001;-66
2023/10/25 06:59:23;;;;;;;2.33;1.05;;;14.00;73.20;;;;;;2278172;55;21936;-69
2023/10/25 07:01:53;;;;;;;2.80;0.93;;;14.00;73.20;;;;;;2278978;55;20965;-67
2023/10/25 07:04:20;;;;;;;2.50;1.15;;;14.00;73.20;;;;;;2513365;55;20954;-66
2023/10/25 07:06:49;;;;;;;1.83;0.95;;;14.00;73.20;;;;;;2514976;55;21005;-69
2023/10/25 07:09:16;;;;;;;3.15;1.05;;;14.00;73.20;;;;;;2281423;55;20982;-69
2023/10/25 07:11:42;;;;;;;3.30;0.98;;;14.00;73.10;;;;;;2277461;55;21555;-70
2023/10/25 07:14:08;;;;;;;2.53;1.05;;;14.00;73.20;;;;;;2506522;54;21443;-68
2023/10/25 07:16:36;;;;;;;3.47;0.90;;;14.00;73.20;;;;;;2511549;55;21917;-72
2023/10/25 07:19:22;;;;;;;1.80;0.82;;;14.00;73.40;;;;;;2281826;56;21001;-67
2023/10/25 07:21:49;;;;;;;3.12;0.80;;;14.10;73.20;;;;;;2514450;55;20970;-70
2023/10/25 07:24:16;;;;;;;4.32;1.20;;;14.10;73.60;;;;;;2514304;55;21074;-67
2023/10/25 07:26:42;;;;;;;2.58;1.10;;;14.10;73.60;;;;;;2273586;54;20962;-72
2023/10/25 07:29:09;;;;;;;2.42;1.17;;;14.10;73.60;;;;;;2281347;56;20938;-70
2023/10/25 07:31:44;;;;;;;2.45;1.20;;;14.10;73.70;;;;;;2513703;55;21065;-68
2023/10/25 07:34:11;;;;;;;1.45;0.62;;;14.10;73.70;;;;;;2281196;56;20957;-69
2023/10/25 07:36:39;;;;;;;1.42;0.50;;;14.10;74.00;;;;;;2280275;56;21106;-66
2023/10/25 07:39:05;;;;;;;1.15;0.40;;;14.20;74.30;;;;;;2281874;56;20970;-68
2023/10/25 07:41:31;;;;;;;0.70;0.40;;;14.20;74.40;;;;;;2280932;55;20954;-68
2023/10/25 07:43:59;;;;;;;1.33;0.30;;;14.30;74.60;;;;;;2281699;56;20985;-70
2023/10/25 07:46:28;;;;;;;0.80;0.20;;;14.40;74.80;;;;;;2280885;55;20999;-70
2023/10/25 07:48:55;;;;;;;0.60;0.30;;;14.30;74.70;;;;;;2282140;55;20954;-70
2023/10/25 07:51:22;;;;;;;0.88;0.40;;;14.40;75.00;;;;;;2280123;56;21114;-68
2023/10/25 07:53:48;;;;;;;0.75;0.30;;;14.40;75.00;;;;;;2280473;55;20966;-67
2023/10/25 07:56:14;;;;;;;0.52;0.30;;;14.50;75.10;;;;;;2514242;55;21407;-70
2023/10/25 07:58:45;;;;;;;0.70;0.37;;;14.50;75.10;;;;;;2514710;55;20966;-68
2023/10/25 08:01:12;;;;;;;2.20;0.40;;;14.60;75.20;;;;;;2514072;55;21282;-71
2023/10/25 08:03:38;;;;;;;0.60;0.22;;;14.70;75.40;;;;;;2280713;55;21454;-68
2023/10/25 08:06:07;;;;;;;0.80;0.32;;;14.70;75.30;;;;;;2505801;54;21091;-71
2023/10/25 08:08:34;;;;;;;0.77;0.30;;;14.80;75.30;;;;;;2273715;55;21002;-68
2023/10/25 08:11:02;;;;;;;0.50;0.30;;;14.80;75.30;;;;;;2281883;55;21458;-68
2023/10/25 08:13:29;;;;;;;0.60;0.30;;;14.90;75.40;;;;;;2279891;56;21466;-69
2023/10/25 08:15:56;;;;;;;0.88;0.30;;;14.90;75.40;;;;;;2508500;54;21425;-69
2023/10/25 08:18:22;;;;;;;0.98;0.40;;;14.90;75.30;;;;;;2277272;54;20938;-67
2023/10/25 08:20:49;;;;;;;0.73;0.37;;;15.00;75.40;;;;;;2514639;55;21530;-67
2023/10/25 08:23:15;;;;;;;1.05;0.50;;;15.00;75.30;;;;;;2281495;56;21037;-67
2023/10/25 08:25:42;;;;;;;0.88;0.40;;;15.10;75.40;;;;;;2280999;56;20970;-68
2023/10/25 08:28:08;;;;;;;0.75;0.30;;;15.10;75.30;;;;;;2514413;55;21022;-70
2023/10/25 08:30:35;;;;;;;1.08;0.40;;;15.20;75.40;;;;;;2478829;55;21021;-69
2023/10/25 08:33:01;;;;;;;3.60;0.75;;;15.20;75.40;;;;;;2514586;55;20937;-67
2023/10/25 08:35:28;;;;;;;0.62;0.37;;;15.20;75.50;;;;;;2280645;56;21598;-67
2023/10/25 08:37:54;;;;;;;0.98;0.37;;;15.30;75.60;;;;;;2281634;56;21744;-70
2023/10/25 08:40:23;;;;;;;0.77;0.40;;;15.30;75.60;;;;;;2281112;55;20971;-66
2023/10/25 08:42:51;;;;;;;1.23;0.50;;;15.50;75.80;;;;;;2281662;55;20942;-67
2023/10/25 08:45:32;;;;;;;0.62;0.30;;;15.50;75.80;;;;;;2514662;55;20938;-67
2023/10/25 08:47:59;;;;;;;0.52;0.32;;;15.50;75.50;;;;;;2281613;56;20970;-66
2023/10/25 08:50:25;;;;;;;0.75;0.37;;;15.60;75.70;;;;;;2280702;55;20990;-67
2023/10/25 08:52:52;;;;;;;1.35;0.40;;;15.60;75.70;;;;;;2281607;55;20970;-67
2023/10/25 08:55:23;;;;;;;0.75;0.40;;;15.80;75.90;;;;;;2281351;56;20946;-69
2023/10/25 08:57:59;;;;;;;0.75;0.32;;;15.80;75.80;;;;;;2282307;55;21137;-70
2023/10/25 09:00:28;;;;;;;2.40;0.40;;;15.80;75.80;;;;;;2280606;56;21022;-67
2023/10/25 09:02:59;;;;;;;0.98;0.40;;;15.80;75.80;;;;;;2281648;56;20946;-68
2023/10/25 09:05:41;;;;;;;1.65;0.40;;;16.00;75.90;;;;;;2280745;56;21182;-67
2023/10/25 09:08:14;;;;;;;;;;;16.00;75.30;;;;;;2518041;55;21490;-68
2023/10/25 09:10:40;;;;;;;1.65;0.70;;;16.00;74.50;;;;;;2514261;55;20072;-67
2023/10/25 09:13:13;;;;;;;1.35;0.40;;;16.10;75.50;;;;;;2281516;55;20990;-69
2023/10/25 09:15:39;;;;;;;0.95;0.40;;;16.10;75.30;;;;;;2513828;55;21117;-67
2023/10/25 09:18:06;;;;;;;0.88;0.45;;;16.20;75.60;;;;;;2281731;55;20942;-68
2023/10/25 09:20:32;;;;;;;0.95;0.40;;;16.20;75.50;;;;;;2513124;55;21029;-67
2023/10/25 09:23:09;;;;;;;0.95;0.40;;;16.20;75.50;;;;;;2281342;56;21779;-68
2023/10/25 09:25:37;;;;;;;0.43;0.20;;;16.30;75.10;;;;;;2281428;55;20977;-66
2023/10/25 09:28:28;;;;;;;3.10;0.80;;;16.30;75.40;;;;;;2281851;56;20965;-67
2023/10/25 09:30:55;;;;;;;0.70;0.30;;;16.40;74.80;;;;;;2281573;56;21771;-69
2023/10/25 09:33:22;;;;;;;0.50;0.35;;;16.40;75.30;;;;;;2513342;55;20970;-70
2023/10/25 09:35:50;;;;;;;1.10;0.40;;;16.50;75.30;;;;;;2281343;56;21033;-68
2023/10/25 09:38:19;;;;;;;0.75;0.30;;;16.50;75.30;;;;;;2514112;55;21022;-68
2023/10/25 09:40:46;;;;;;;0.90;0.40;;;16.50;75.20;;;;;;2280868;55;21029;-68
2023/10/25 09:43:22;;;;;;;0.70;0.30;;;16.60;75.30;;;;;;2281530;55;21001;-68
2023/10/25 09:45:54;;;;;;;0.43;0.25;;;16.60;75.10;;;;;;2281078;56;21443;-68
2023/10/25 09:48:22;;;;;;;0.68;0.20;;;16.60;75.10;;;;;;2281197;56;21075;-68
2023/10/25 09:51:22;;;;;;;0.95;0.30;;;16.70;75.30;;;;;;2280624;55;21876;-68
2023/10/25 09:53:58;;;;;;;0.70;0.30;;;16.70;74.80;;;;;;2281357;55;21844;-67
2023/10/25 09:56:24;;;;;;;1.70;0.25;;;16.80;75.20;;;;;;2513591;55;20986;-66
2023/10/25 09:58:51;;;;;;;0.65;0.30;;;16.80;75.30;;;;;;2514802;55;21459;-69
2023/10/25 10:01:17;;;;;;;0.35;0.20;;;16.90;75.40;;;;;;2281249;56;21018;-67
2023/10/25 10:03:52;;;;;;;0.68;0.40;;;16.80;75.30;;;;;;2514910;54;20926;-68
2023/10/25 10:06:37;;;;;;;2.58;0.50;;;16.90;75.30;;;;;;2281360;56;21033;-68
2023/10/25 10:10:39;;;;;;;1.42;0.50;;;16.90;75.30;;;;;;2515032;55;21061;-67
2023/10/25 10:13:22;;;;;;;1.55;0.60;;;17.00;74.30;;;;;;2281667;56;21021;-67
2023/10/25 10:16:00;;;;;;;1.60;0.70;;;17.10;74.90;;;;;;2282139;55;20978;-68
2023/10/25 10:18:33;;;;;;;0.88;0.50;;;17.10;75.20;;;;;;2280393;55;21505;-68
2023/10/25 10:21:07;;;;;;;0.98;0.40;;;17.10;75.50;;;;;;2490667;54;20979;-68
2023/10/25 10:23:56;;;;;;;0.80;0.37;;;17.20;75.40;;;;;;2277619;55;20991;-67
2023/10/25 10:27:08;;;;;;;1.87;0.40;;;17.20;75.00;;;;;;2280750;55;21054;-67
2023/10/25 10:29:37;;;;;;;1.25;0.30;;;17.30;74.80;;;;;;2513564;55;20967;-67
2023/10/25 10:32:05;;;;;;;1.75;0.40;;;17.40;75.90;;;;;;2281719;55;21001;-67
2023/10/25 10:34:56;;;;;;;1.15;0.50;;;17.40;76.30;;;;;;2514155;55;20945;-68
2023/10/25 10:37:24;;;;;;;1.27;0.40;;;17.50;75.60;;;;;;2280943;56;21529;-68
2023/10/25 10:40:25;;;;;;;0.77;0.40;;;17.60;76.40;;;;;;2281410;56;20950;-69
2023/10/25 10:43:22;;;;;;;1.75;0.40;;;17.60;75.40;;;;;;2281093;55;21095;-67
2023/10/25 10:45:51;;;;;;;0.95;0.40;;;17.70;75.60;;;;;;2514373;55;20981;-68
2023/10/25 10:48:21;;;;;;;1.60;0.60;;;17.80;76.30;;;;;;2281669;56;21431;-66
2023/10/25 10:50:49;;;;;;;2.50;0.60;;;17.80;76.10;;;;;;2510007;55;21607;-67
2023/10/25 10:53:15;;;;;;;1.50;0.50;;;17.90;76.20;;;;;;2508820;55;21001;-67
2023/10/25 10:55:43;;;;;;;1.33;0.50;;;17.90;76.10;;;;;;2280603;55;20937;-68
2023/10/25 10:58:12;;;;;;;1.98;0.73;;;18.00;76.10;;;;;;2514387;55;21037;-68
2023/10/25 11:00:44;;;;;;;1.42;0.68;;;18.10;75.80;;;;;;2513619;54;21013;-67
2023/10/25 11:03:11;;;;;;;1.05;0.40;;;18.10;75.70;;;;;;2515105;55;21087;-69
2023/10/25 11:05:39;;;;;;;1.80;0.55;;;18.20;75.60;;;;;;2280177;56;21525;-69
2023/10/25 11:08:14;;;;;;;1.27;0.40;;;18.20;75.30;;;;;;2514636;55;20973;-66
2023/10/25 11:10:40;;;;;;;1.35;0.57;;;18.30;74.90;;;;;;2508421;54;20955;-68
2023/10/25 11:13:18;;;;;;;1.05;0.57;;;18.30;75.00;;;;;;2278967;55;20966;-68
2023/10/25 11:15:46;;;;;;;1.52;0.50;;;18.30;74.20;;;;;;2281384;56;20957;-67
2023/10/25 11:18:12;;;;;;;3.10;0.60;;;18.30;74.80;;;;;;2281376;55;21029;-68
2023/10/25 11:20:40;;;;;;;1.65;0.50;;;18.40;74.80;;;;;;2513824;55;21013;-67
2023/10/25 11:23:09;;;;;;;1.37;0.50;;;18.40;74.50;;;;;;2281192;55;21014;-68
2023/10/25 11:25:38;;;;;;;1.30;0.52;;;18.40;74.20;;;;;;2280337;55;21815;-67
2023/10/25 11:28:06;;;;;;;1.65;0.40;;;18.40;74.40;;;;;;2514910;55;20939;-67
2023/10/25 11:30:34;;;;;;;1.52;0.52;;;18.40;74.20;;;;;;2513339;55;21325;-68
2023/10/25 11:33:00;;;;;;;0.75;0.45;;;18.40;74.20;;;;;;2515073;55;21403;-67
2023/10/25 11:35:30;;;;;;;0.85;0.40;;;18.40;74.20;;;;;;2513958;55;21897;-68
2023/10/25 11:37:58;;;;;;;1.55;0.40;;;18.40;74.20;;;;;;2514322;55;20982;-67
2023/10/25 11:40:39;;;;;;;0.25;0.25;;;18.40;74.20;;;;;;2282246;55;21017;-70
2023/10/25 11:43:06;;;;;;;1.85;0.60;;;18.40;73.60;;;;;;2513893;55;21910;-67
2023/10/25 11:45:32;;;;;;;1.77;0.50;;;18.40;74.10;;;;;;2513827;55;21887;-67
2023/10/25 11:47:59;;;;;;;1.85;0.60;;;18.40;74.10;;;;;;2515254;55;21545;-67
2023/10/25 11:50:25;;;;;;;2.60;0.60;;;18.40;74.00;;;;;;2281582;56;21014;-67
2023/10/25 11:52:52;;;;;;;2.30;0.68;;;18.40;74.10;;;;;;2514095;55;21647;-70
2023/10/25 11:55:19;;;;;;;1.27;0.60;;;18.40;74.10;;;;;;2513865;55;20989;-70
2023/10/25 11:57:45;;;;;;;1.92;0.70;;;18.40;74.20;;;;;;2280585;56;20958;-69
2023/10/25 12:00:12;;;;;;;1.75;0.60;;;18.40;74.10;;;;;;2514968;55;20961;-67
2023/10/25 12:02:39;;;;;;;1.45;0.60;;;18.40;74.10;;;;;;2513153;55;20974;-69
2023/10/25 12:05:05;;;;;;;2.05;0.65;;;18.40;74.10;;;;;;2503915;54;21035;-70
2023/10/25 12:07:32;;;;;;;2.05;0.55;;;18.40;74.10;;;;;;2498675;54;20958;-67
2023/10/25 12:09:58;;;;;;;2.33;0.73;;;18.30;74.00;;;;;;2281696;55;21492;-69
2023/10/25 12:12:24;;;;;;;1.15;0.50;;;18.30;74.00;;;;;;2282982;55;21199;-69
2023/10/25 12:14:51;;;;;;;1.62;0.70;;;18.30;74.10;;;;;;2281650;56;21535;-70
2023/10/25 12:17:18;;;;;;;1.75;0.60;;;18.30;74.20;;;;;;2277518;55;21011;-71
2023/10/25 12:19:45;;;;;;;4.55;0.73;;;18.30;74.30;;;;;;2281993;55;20926;-71
2023/10/25 12:22:12;;;;;;;0.70;0.30;;;18.30;74.40;;;;;;2514857;55;21010;-69
2023/10/25 12:24:39;;;;;;;2.22;0.75;;;18.30;74.40;;;;;;2507594;55;20948;-69
2023/10/25 12:27:09;;;;;;;1.02;0.55;;;18.30;74.40;;;;;;2279016;55;21045;-70
2023/10/25 12:29:35;;;;;;;1.60;0.52;;;18.30;74.40;;;;;;2277382;55;21002;-71
2023/10/25 12:32:03;;;;;;;1.10;0.50;;;18.30;74.60;;;;;;2255457;55;21013;-69
2023/10/25 12:34:30;;;;;;;0.80;0.37;;;18.30;74.60;;;;;;2280970;55;21883;-68
2023/10/25 12:36:56;;;;;;;1.77;0.60;;;18.40;74.60;;;;;;2514672;55;21081;-68
2023/10/25 12:39:23;;;;;;;2.62;0.60;;;18.40;74.60;;;;;;2281452;56;20965;-70
2023/10/25 12:41:50;;;;;;;1.87;0.50;;;18.40;74.60;;;;;;2255884;56;21454;-70
2023/10/25 12:44:20;;;;;;;1.52;0.60;;;18.40;74.40;;;;;;2514412;55;20994;-67
2023/10/25 12:46:46;;;;;;;2.87;0.60;;;18.40;74.30;;;;;;2281303;56;21191;-67
2023/10/25 12:49:18;;;;;;;0.75;0.40;;;18.40;74.40;;;;;;2281408;55;20962;-67
2023/10/25 12:51:45;;;;;;;;;;;18.40;74.40;;;;;;2284551;56;22034;-67
2023/10/25 12:54:11;;;;;;;1.10;0.30;;;18.40;73.40;;;;;;2281490;56;20365;-66
2023/10/25 12:56:37;;;;;;;1.33;0.40;;;18.40;75.10;;;;;;2280848;55;21395;-68
2023/10/25 12:59:06;;;;;;;1.30;0.50;;;18.40;74.30;;;;;;2281843;56;21045;-68